sensor_id;sensor_type;location;lat;lon;timestamp;P1;durP1;ratioP1;P2;durP2;ratioP2
35689;SDS011;26977;44.830;-0.674;2022-07-29T00:02:02;9.90;;;2.55;;
35689;SDS011;26977;44.830;-0.674;2022-07-29T00:04:27;9.75;;;2.78;;
35689;SDS011;26977;44.830;-0.674;2022-07-29T00:06:53;9.40;;;2.60;;
35689;SDS011;26977;44.830;-0.674;2022-07-29T00:09:19;8.10;;;2.63;;
35689;SDS011;26977;44.830;-0.674;2022-07-29T00:11:44;8.60;;;2.58;;
35689;SDS011;26977;44.830;-0.674;2022-07-29T00:14:10;12.68;;;2.45;;
35689;SDS011;26977;44.830;-0.674;2022-07-29T00:16:36;8.52;;;2.60;;
35689;SDS011;26977;44.830;-0.674;2022-07-29T00:19:02;9.45;;;3.30;;
35689;SDS011;26977;44.830;-0.674;2022-07-29T00:21:28;12.90;;;2.72;;
35689;SDS011;26977;44.830;-0.674;2022-07-29T00:23:54;9.63;;;2.80;;
35689;SDS011;26977;44.830;-0.674;2022-07-29T00:26:19;7.68;;;2.70;;
35689;SDS011;26977;44.830;-0.674;2022-07-29T00:28:45;8.23;;;2.55;;
35689;SDS011;26977;44.830;-0.674;2022-07-29T00:31:11;5.50;;;2.55;;
35689;SDS011;26977;44.830;-0.674;2022-07-29T00:33:37;8.93;;;2.45;;
35689;SDS011;26977;44.830;-0.674;2022-07-29T00:36:02;10.85;;;2.45;;
35689;SDS011;26977;44.830;-0.674;2022-07-29T00:38:28;6.95;;;2.30;;
35689;SDS011;26977;44.830;-0.674;2022-07-29T00:40:54;7.90;;;2.75;;
35689;SDS011;26977;44.830;-0.674;2022-07-29T00:43:20;7.90;;;2.42;;
35689;SDS011;26977;44.830;-0.674;2022-07-29T00:45:45;7.95;;;2.55;;
35689;SDS011;26977;44.830;-0.674;2022-07-29T00:48:11;11.50;;;2.63;;
35689;SDS011;26977;44.830;-0.674;2022-07-29T00:50:37;8.77;;;2.53;;
35689;SDS011;26977;44.830;-0.674;2022-07-29T00:53:03;7.70;;;2.60;;
35689;SDS011;26977;44.830;-0.674;2022-07-29T00:55:31;8.25;;;2.47;;
35689;SDS011;26977;44.830;-0.674;2022-07-29T00:57:58;10.00;;;2.67;;
35689;SDS011;26977;44.830;-0.674;2022-07-29T01:00:25;12.20;;;3.03;;
35689;SDS011;26977;44.830;-0.674;2022-07-29T01:02:52;5.93;;;2.60;;
35689;SDS011;26977;44.830;-0.674;2022-07-29T01:05:18;9.65;;;2.83;;
35689;SDS011;26977;44.830;-0.674;2022-07-29T01:07:46;5.22;;;2.40;;
35689;SDS011;26977;44.830;-0.674;2022-07-29T01:10:15;7.60;;;2.38;;
35689;SDS011;26977;44.830;-0.674;2022-07-29T01:12:43;7.68;;;2.25;;
35689;SDS011;26977;44.830;-0.674;2022-07-29T01:15:11;10.30;;;2.78;;
35689;SDS011;26977;44.830;-0.674;2022-07-29T01:23:17;8.35;;;2.90;;
35689;SDS011;26977;44.830;-0.674;2022-07-29T01:34:05;8.98;;;3.08;;
35689;SDS011;26977;44.830;-0.674;2022-07-29T01:39:37;6.93;;;2.35;;
35689;SDS011;26977;44.830;-0.674;2022-07-29T01:45:03;8.65;;;2.67;;
35689;SDS011;26977;44.830;-0.674;2022-07-29T01:48:10;9.27;;;2.58;;
35689;SDS011;26977;44.830;-0.674;2022-07-29T01:50:36;8.65;;;2.80;;
35689;SDS011;26977;44.830;-0.674;2022-07-29T01:53:06;10.80;;;2.75;;
35689;SDS011;26977;44.830;-0.674;2022-07-29T01:55:35;11.43;;;3.00;;
35689;SDS011;26977;44.830;-0.674;2022-07-29T01:58:05;7.15;;;2.92;;
35689;SDS011;26977;44.830;-0.674;2022-07-29T02:00:32;9.30;;;2.58;;
35689;SDS011;26977;44.830;-0.674;2022-07-29T02:03:00;9.82;;;2.90;;
35689;SDS011;26977;44.830;-0.674;2022-07-29T02:05:29;8.57;;;2.95;;
35689;SDS011;26977;44.830;-0.674;2022-07-29T02:07:56;9.80;;;3.08;;
35689;SDS011;26977;44.830;-0.674;2022-07-29T02:10:25;10.45;;;2.88;;
35689;SDS011;26977;44.830;-0.674;2022-07-29T02:12:54;7.03;;;2.75;;
35689;SDS011;26977;44.830;-0.674;2022-07-29T02:15:21;6.55;;;2.97;;
35689;SDS011;26977;44.830;-0.674;2022-07-29T02:17:50;8.32;;;3.05;;
35689;SDS011;26977;44.830;-0.674;2022-07-29T02:20:20;10.13;;;2.90;;
35689;SDS011;26977;44.830;-0.674;2022-07-29T02:22:49;11.48;;;3.15;;
35689;SDS011;26977;44.830;-0.674;2022-07-29T02:25:17;13.25;;;3.03;;
35689;SDS011;26977;44.830;-0.674;2022-07-29T02:27:43;10.85;;;3.03;;
35689;SDS011;26977;44.830;-0.674;2022-07-29T02:30:10;7.25;;;2.80;;
35689;SDS011;26977;44.830;-0.674;2022-07-29T02:32:38;10.57;;;3.40;;
35689;SDS011;26977;44.830;-0.674;2022-07-29T02:35:05;9.57;;;2.53;;
35689;SDS011;26977;44.830;-0.674;2022-07-29T02:37:33;6.22;;;2.72;;
35689;SDS011;26977;44.830;-0.674;2022-07-29T02:40:00;7.15;;;2.92;;
35689;SDS011;26977;44.830;-0.674;2022-07-29T02:42:27;10.23;;;3.50;;
35689;SDS011;26977;44.830;-0.674;2022-07-29T02:44:54;13.70;;;3.30;;
35689;SDS011;26977;44.830;-0.674;2022-07-29T02:47:22;7.30;;;2.80;;
35689;SDS011;26977;44.830;-0.674;2022-07-29T02:50:21;10.35;;;2.97;;
35689;SDS011;26977;44.830;-0.674;2022-07-29T02:53:09;9.48;;;2.72;;
35689;SDS011;26977;44.830;-0.674;2022-07-29T02:55:45;8.57;;;2.92;;
35689;SDS011;26977;44.830;-0.674;2022-07-29T03:00:43;8.35;;;2.95;;
35689;SDS011;26977;44.830;-0.674;2022-07-29T03:03:12;12.75;;;3.30;;
35689;SDS011;26977;44.830;-0.674;2022-07-29T03:05:40;12.05;;;2.60;;
35689;SDS011;26977;44.830;-0.674;2022-07-29T03:08:06;8.40;;;2.95;;
35689;SDS011;26977;44.830;-0.674;2022-07-29T03:10:36;6.50;;;3.10;;
35689;SDS011;26977;44.830;-0.674;2022-07-29T03:13:04;10.60;;;3.35;;
35689;SDS011;26977;44.830;-0.674;2022-07-29T03:15:31;9.15;;;3.10;;
35689;SDS011;26977;44.830;-0.674;2022-07-29T03:17:57;8.18;;;2.80;;
35689;SDS011;26977;44.830;-0.674;2022-07-29T03:20:24;8.65;;;2.83;;
35689;SDS011;26977;44.830;-0.674;2022-07-29T03:22:50;7.78;;;2.70;;
35689;SDS011;26977;44.830;-0.674;2022-07-29T03:25:16;6.40;;;2.53;;
35689;SDS011;26977;44.830;-0.674;2022-07-29T03:27:44;12.50;;;2.85;;
35689;SDS011;26977;44.830;-0.674;2022-07-29T03:30:11;11.27;;;3.00;;
35689;SDS011;26977;44.830;-0.674;2022-07-29T03:32:37;8.57;;;2.72;;
35689;SDS011;26977;44.830;-0.674;2022-07-29T03:35:04;6.78;;;2.67;;
35689;SDS011;26977;44.830;-0.674;2022-07-29T03:37:30;10.10;;;3.53;;
35689;SDS011;26977;44.830;-0.674;2022-07-29T03:39:58;7.35;;;3.00;;
35689;SDS011;26977;44.830;-0.674;2022-07-29T03:42:30;9.20;;;3.03;;
35689;SDS011;26977;44.830;-0.674;2022-07-29T03:45:02;8.77;;;3.20;;
35689;SDS011;26977;44.830;-0.674;2022-07-29T03:47:31;8.98;;;2.88;;
35689;SDS011;26977;44.830;-0.674;2022-07-29T03:50:00;9.18;;;2.97;;
35689;SDS011;26977;44.830;-0.674;2022-07-29T03:52:30;6.95;;;2.47;;
35689;SDS011;26977;44.830;-0.674;2022-07-29T03:54:56;8.73;;;2.50;;
35689;SDS011;26977;44.830;-0.674;2022-07-29T03:57:23;8.55;;;2.85;;
35689;SDS011;26977;44.830;-0.674;2022-07-29T03:59:52;10.68;;;3.13;;
35689;SDS011;26977;44.830;-0.674;2022-07-29T04:02:19;7.55;;;3.33;;
35689;SDS011;26977;44.830;-0.674;2022-07-29T04:04:46;6.75;;;2.70;;
35689;SDS011;26977;44.830;-0.674;2022-07-29T04:07:12;8.70;;;3.00;;
35689;SDS011;26977;44.830;-0.674;2022-07-29T04:09:39;11.18;;;3.25;;
35689;SDS011;26977;44.830;-0.674;2022-07-29T04:12:05;9.73;;;2.80;;
35689;SDS011;26977;44.830;-0.674;2022-07-29T04:14:32;11.55;;;3.38;;
35689;SDS011;26977;44.830;-0.674;2022-07-29T04:16:58;11.57;;;3.00;;
35689;SDS011;26977;44.830;-0.674;2022-07-29T04:19:25;7.88;;;2.90;;
35689;SDS011;26977;44.830;-0.674;2022-07-29T04:21:50;9.07;;;2.88;;
35689;SDS011;26977;44.830;-0.674;2022-07-29T04:24:16;6.15;;;2.90;;
35689;SDS011;26977;44.830;-0.674;2022-07-29T04:26:42;7.55;;;2.63;;
35689;SDS011;26977;44.830;-0.674;2022-07-29T04:29:08;10.13;;;3.50;;
35689;SDS011;26977;44.830;-0.674;2022-07-29T04:31:34;6.50;;;3.40;;
35689;SDS011;26977;44.830;-0.674;2022-07-29T04:33:59;14.32;;;3.05;;
35689;SDS011;26977;44.830;-0.674;2022-07-29T04:36:25;7.70;;;3.47;;
35689;SDS011;26977;44.830;-0.674;2022-07-29T04:38:50;10.38;;;4.47;;
35689;SDS011;26977;44.830;-0.674;2022-07-29T04:41:16;12.88;;;3.97;;
35689;SDS011;26977;44.830;-0.674;2022-07-29T04:43:42;7.15;;;4.07;;
35689;SDS011;26977;44.830;-0.674;2022-07-29T04:46:07;9.27;;;3.40;;
35689;SDS011;26977;44.830;-0.674;2022-07-29T04:48:33;5.00;;;3.40;;
35689;SDS011;26977;44.830;-0.674;2022-07-29T04:50:59;8.50;;;3.92;;
35689;SDS011;26977;44.830;-0.674;2022-07-29T04:53:24;8.63;;;3.22;;
35689;SDS011;26977;44.830;-0.674;2022-07-29T04:55:51;13.80;;;3.70;;
35689;SDS011;26977;44.830;-0.674;2022-07-29T04:58:16;11.98;;;4.10;;
35689;SDS011;26977;44.830;-0.674;2022-07-29T05:00:42;9.68;;;4.28;;
35689;SDS011;26977;44.830;-0.674;2022-07-29T05:03:08;16.75;;;4.60;;
35689;SDS011;26977;44.830;-0.674;2022-07-29T05:05:34;14.25;;;4.43;;
35689;SDS011;26977;44.830;-0.674;2022-07-29T05:07:59;8.95;;;4.10;;
35689;SDS011;26977;44.830;-0.674;2022-07-29T05:10:25;10.98;;;3.90;;
35689;SDS011;26977;44.830;-0.674;2022-07-29T05:12:51;14.43;;;4.10;;
35689;SDS011;26977;44.830;-0.674;2022-07-29T05:15:17;15.20;;;3.80;;
35689;SDS011;26977;44.830;-0.674;2022-07-29T05:17:43;17.00;;;4.80;;
35689;SDS011;26977;44.830;-0.674;2022-07-29T05:20:09;15.90;;;4.25;;
35689;SDS011;26977;44.830;-0.674;2022-07-29T05:22:35;12.05;;;4.40;;
35689;SDS011;26977;44.830;-0.674;2022-07-29T05:25:01;13.52;;;4.72;;
35689;SDS011;26977;44.830;-0.674;2022-07-29T05:27:27;7.45;;;4.20;;
35689;SDS011;26977;44.830;-0.674;2022-07-29T05:29:53;11.10;;;4.75;;
35689;SDS011;26977;44.830;-0.674;2022-07-29T05:32:18;10.95;;;4.30;;
35689;SDS011;26977;44.830;-0.674;2022-07-29T05:34:44;13.50;;;5.35;;
35689;SDS011;26977;44.830;-0.674;2022-07-29T05:37:10;11.88;;;4.90;;
35689;SDS011;26977;44.830;-0.674;2022-07-29T05:39:38;19.67;;;5.97;;
35689;SDS011;26977;44.830;-0.674;2022-07-29T05:42:07;11.77;;;6.28;;
35689;SDS011;26977;44.830;-0.674;2022-07-29T05:44:36;14.13;;;7.38;;
35689;SDS011;26977;44.830;-0.674;2022-07-29T05:47:02;13.80;;;7.38;;
35689;SDS011;26977;44.830;-0.674;2022-07-29T05:49:28;12.57;;;7.90;;
35689;SDS011;26977;44.830;-0.674;2022-07-29T05:51:53;16.40;;;7.80;;
35689;SDS011;26977;44.830;-0.674;2022-07-29T05:54:19;18.23;;;8.77;;
35689;SDS011;26977;44.830;-0.674;2022-07-29T05:56:45;15.63;;;7.70;;
35689;SDS011;26977;44.830;-0.674;2022-07-29T05:59:11;16.23;;;7.35;;
35689;SDS011;26977;44.830;-0.674;2022-07-29T06:01:37;17.35;;;7.80;;
35689;SDS011;26977;44.830;-0.674;2022-07-29T06:04:04;15.13;;;7.80;;
35689;SDS011;26977;44.830;-0.674;2022-07-29T06:06:33;18.10;;;7.60;;
35689;SDS011;26977;44.830;-0.674;2022-07-29T06:09:00;14.27;;;7.00;;
35689;SDS011;26977;44.830;-0.674;2022-07-29T06:11:26;9.88;;;6.90;;
35689;SDS011;26977;44.830;-0.674;2022-07-29T06:13:52;18.25;;;6.57;;
35689;SDS011;26977;44.830;-0.674;2022-07-29T06:16:18;13.95;;;6.72;;
35689;SDS011;26977;44.830;-0.674;2022-07-29T06:18:44;11.38;;;6.97;;
35689;SDS011;26977;44.830;-0.674;2022-07-29T06:21:10;17.52;;;6.95;;
35689;SDS011;26977;44.830;-0.674;2022-07-29T06:23:36;9.15;;;6.00;;
35689;SDS011;26977;44.830;-0.674;2022-07-29T06:26:03;11.50;;;5.93;;
35689;SDS011;26977;44.830;-0.674;2022-07-29T06:28:28;18.90;;;5.93;;
35689;SDS011;26977;44.830;-0.674;2022-07-29T06:30:54;11.48;;;5.88;;
35689;SDS011;26977;44.830;-0.674;2022-07-29T06:33:19;19.13;;;5.82;;
35689;SDS011;26977;44.830;-0.674;2022-07-29T06:35:45;13.38;;;6.22;;
35689;SDS011;26977;44.830;-0.674;2022-07-29T06:38:12;14.88;;;6.10;;
35689;SDS011;26977;44.830;-0.674;2022-07-29T06:40:42;15.38;;;6.65;;
35689;SDS011;26977;44.830;-0.674;2022-07-29T06:43:32;11.13;;;5.55;;
35689;SDS011;26977;44.830;-0.674;2022-07-29T06:46:07;18.52;;;5.47;;
35689;SDS011;26977;44.830;-0.674;2022-07-29T06:48:34;13.40;;;5.60;;
35689;SDS011;26977;44.830;-0.674;2022-07-29T06:51:01;11.30;;;5.53;;
35689;SDS011;26977;44.830;-0.674;2022-07-29T06:53:28;10.57;;;5.18;;
35689;SDS011;26977;44.830;-0.674;2022-07-29T06:55:53;13.93;;;6.38;;
35689;SDS011;26977;44.830;-0.674;2022-07-29T06:58:19;11.85;;;5.55;;
35689;SDS011;26977;44.830;-0.674;2022-07-29T07:00:48;11.55;;;5.47;;
35689;SDS011;26977;44.830;-0.674;2022-07-29T07:03:14;11.80;;;5.38;;
35689;SDS011;26977;44.830;-0.674;2022-07-29T07:05:41;7.43;;;4.85;;
35689;SDS011;26977;44.830;-0.674;2022-07-29T07:08:07;12.98;;;5.55;;
35689;SDS011;26977;44.830;-0.674;2022-07-29T07:10:33;17.83;;;6.88;;
35689;SDS011;26977;44.830;-0.674;2022-07-29T07:12:59;13.70;;;6.40;;
35689;SDS011;26977;44.830;-0.674;2022-07-29T07:15:25;13.00;;;5.75;;
35689;SDS011;26977;44.830;-0.674;2022-07-29T07:17:52;10.63;;;5.28;;
35689;SDS011;26977;44.830;-0.674;2022-07-29T07:20:17;14.20;;;5.00;;
35689;SDS011;26977;44.830;-0.674;2022-07-29T07:22:43;11.50;;;5.47;;
35689;SDS011;26977;44.830;-0.674;2022-07-29T07:25:09;15.82;;;5.90;;
35689;SDS011;26977;44.830;-0.674;2022-07-29T07:27:36;13.25;;;5.40;;
35689;SDS011;26977;44.830;-0.674;2022-07-29T07:30:03;14.48;;;4.53;;
35689;SDS011;26977;44.830;-0.674;2022-07-29T07:32:30;10.93;;;4.60;;
35689;SDS011;26977;44.830;-0.674;2022-07-29T07:34:56;9.18;;;3.85;;
35689;SDS011;26977;44.830;-0.674;2022-07-29T07:37:23;13.48;;;3.72;;
35689;SDS011;26977;44.830;-0.674;2022-07-29T07:39:50;9.88;;;4.30;;
35689;SDS011;26977;44.830;-0.674;2022-07-29T07:42:19;9.80;;;3.60;;
35689;SDS011;26977;44.830;-0.674;2022-07-29T07:44:45;7.15;;;3.67;;
35689;SDS011;26977;44.830;-0.674;2022-07-29T07:47:11;8.15;;;3.92;;
35689;SDS011;26977;44.830;-0.674;2022-07-29T07:49:37;9.48;;;3.90;;
35689;SDS011;26977;44.830;-0.674;2022-07-29T07:52:03;11.52;;;3.50;;
35689;SDS011;26977;44.830;-0.674;2022-07-29T07:54:29;7.55;;;3.30;;
35689;SDS011;26977;44.830;-0.674;2022-07-29T07:56:55;4.63;;;2.72;;
35689;SDS011;26977;44.830;-0.674;2022-07-29T07:59:21;8.43;;;3.13;;
35689;SDS011;26977;44.830;-0.674;2022-07-29T08:01:47;11.20;;;3.60;;
35689;SDS011;26977;44.830;-0.674;2022-07-29T08:04:13;5.57;;;2.80;;
35689;SDS011;26977;44.830;-0.674;2022-07-29T08:06:38;9.18;;;3.10;;
35689;SDS011;26977;44.830;-0.674;2022-07-29T08:09:04;8.45;;;3.00;;
35689;SDS011;26977;44.830;-0.674;2022-07-29T08:11:30;7.38;;;3.22;;
35689;SDS011;26977;44.830;-0.674;2022-07-29T08:13:56;7.05;;;2.70;;
35689;SDS011;26977;44.830;-0.674;2022-07-29T08:16:22;7.05;;;2.28;;
35689;SDS011;26977;44.830;-0.674;2022-07-29T08:18:50;5.53;;;2.20;;
35689;SDS011;26977;44.830;-0.674;2022-07-29T08:21:16;6.15;;;2.50;;
35689;SDS011;26977;44.830;-0.674;2022-07-29T08:23:45;10.35;;;2.92;;
35689;SDS011;26977;44.830;-0.674;2022-07-29T08:26:14;5.97;;;2.50;;
35689;SDS011;26977;44.830;-0.674;2022-07-29T08:28:41;10.95;;;2.72;;
35689;SDS011;26977;44.830;-0.674;2022-07-29T08:31:10;9.48;;;2.60;;
35689;SDS011;26977;44.830;-0.674;2022-07-29T08:33:37;7.38;;;2.75;;
35689;SDS011;26977;44.830;-0.674;2022-07-29T08:36:04;13.25;;;3.38;;
35689;SDS011;26977;44.830;-0.674;2022-07-29T08:38:31;6.03;;;2.40;;
35689;SDS011;26977;44.830;-0.674;2022-07-29T08:40:56;15.05;;;2.25;;
35689;SDS011;26977;44.830;-0.674;2022-07-29T08:43:23;10.25;;;2.25;;
35689;SDS011;26977;44.830;-0.674;2022-07-29T08:45:50;5.93;;;1.80;;
35689;SDS011;26977;44.830;-0.674;2022-07-29T08:48:17;5.63;;;2.33;;
35689;SDS011;26977;44.830;-0.674;2022-07-29T08:50:45;9.20;;;2.53;;
35689;SDS011;26977;44.830;-0.674;2022-07-29T08:53:15;8.13;;;1.92;;
35689;SDS011;26977;44.830;-0.674;2022-07-29T08:55:43;5.63;;;2.65;;
35689;SDS011;26977;44.830;-0.674;2022-07-29T08:58:09;5.78;;;2.40;;
35689;SDS011;26977;44.830;-0.674;2022-07-29T09:00:36;4.65;;;1.88;;
35689;SDS011;26977;44.830;-0.674;2022-07-29T09:03:06;6.35;;;1.80;;
35689;SDS011;26977;44.830;-0.674;2022-07-29T09:05:34;5.55;;;2.22;;
35689;SDS011;26977;44.830;-0.674;2022-07-29T09:08:00;7.43;;;1.90;;
35689;SDS011;26977;44.830;-0.674;2022-07-29T09:10:26;7.45;;;1.58;;
35689;SDS011;26977;44.830;-0.674;2022-07-29T09:12:54;3.97;;;1.10;;
35689;SDS011;26977;44.830;-0.674;2022-07-29T09:15:20;7.50;;;1.65;;
35689;SDS011;26977;44.830;-0.674;2022-07-29T09:17:47;4.50;;;1.13;;
35689;SDS011;26977;44.830;-0.674;2022-07-29T09:20:18;7.05;;;1.75;;
35689;SDS011;26977;44.830;-0.674;2022-07-29T09:22:46;6.25;;;1.30;;
35689;SDS011;26977;44.830;-0.674;2022-07-29T09:25:14;4.13;;;1.15;;
35689;SDS011;26977;44.830;-0.674;2022-07-29T09:28:04;3.90;;;1.10;;
35689;SDS011;26977;44.830;-0.674;2022-07-29T09:30:31;4.30;;;1.33;;
35689;SDS011;26977;44.830;-0.674;2022-07-29T09:32:58;5.82;;;1.52;;
35689;SDS011;26977;44.830;-0.674;2022-07-29T09:35:26;5.00;;;1.10;;
35689;SDS011;26977;44.830;-0.674;2022-07-29T09:37:53;4.32;;;1.23;;
35689;SDS011;26977;44.830;-0.674;2022-07-29T09:42:49;6.13;;;1.20;;
35689;SDS011;26977;44.830;-0.674;2022-07-29T09:45:32;4.28;;;1.38;;
35689;SDS011;26977;44.830;-0.674;2022-07-29T09:47:59;3.87;;;1.13;;
35689;SDS011;26977;44.830;-0.674;2022-07-29T09:50:41;4.18;;;1.27;;
35689;SDS011;26977;44.830;-0.674;2022-07-29T09:53:09;3.70;;;1.30;;
35689;SDS011;26977;44.830;-0.674;2022-07-29T09:55:45;4.85;;;1.45;;
35689;SDS011;26977;44.830;-0.674;2022-07-29T09:58:16;5.40;;;1.58;;
35689;SDS011;26977;44.830;-0.674;2022-07-29T10:00:46;5.28;;;2.15;;
35689;SDS011;26977;44.830;-0.674;2022-07-29T10:03:13;3.70;;;1.58;;
35689;SDS011;26977;44.830;-0.674;2022-07-29T10:05:40;7.50;;;2.05;;
35689;SDS011;26977;44.830;-0.674;2022-07-29T10:08:07;8.63;;;2.10;;
35689;SDS011;26977;44.830;-0.674;2022-07-29T10:10:34;6.03;;;2.10;;
35689;SDS011;26977;44.830;-0.674;2022-07-29T10:13:03;5.65;;;2.05;;
35689;SDS011;26977;44.830;-0.674;2022-07-29T10:15:31;5.35;;;1.70;;
35689;SDS011;26977;44.830;-0.674;2022-07-29T10:17:59;8.95;;;2.17;;
35689;SDS011;26977;44.830;-0.674;2022-07-29T10:20:25;4.20;;;1.55;;
35689;SDS011;26977;44.830;-0.674;2022-07-29T10:22:52;5.55;;;1.80;;
35689;SDS011;26977;44.830;-0.674;2022-07-29T10:25:18;4.13;;;1.42;;
35689;SDS011;26977;44.830;-0.674;2022-07-29T10:27:45;4.70;;;1.58;;
35689;SDS011;26977;44.830;-0.674;2022-07-29T10:30:13;3.53;;;1.77;;
35689;SDS011;26977;44.830;-0.674;2022-07-29T10:38:51;7.20;;;1.75;;
35689;SDS011;26977;44.830;-0.674;2022-07-29T10:44:21;5.45;;;1.50;;
35689;SDS011;26977;44.830;-0.674;2022-07-29T10:46:48;5.28;;;1.40;;
35689;SDS011;26977;44.830;-0.674;2022-07-29T10:49:25;4.25;;;1.83;;
35689;SDS011;26977;44.830;-0.674;2022-07-29T10:57:28;4.65;;;1.55;;
35689;SDS011;26977;44.830;-0.674;2022-07-29T11:07:33;5.95;;;2.00;;
35689;SDS011;26977;44.830;-0.674;2022-07-29T11:15:08;4.75;;;1.60;;
35689;SDS011;26977;44.830;-0.674;2022-07-29T11:23:21;5.68;;;1.90;;
35689;SDS011;26977;44.830;-0.674;2022-07-29T11:34:18;5.50;;;2.00;;
35689;SDS011;26977;44.830;-0.674;2022-07-29T11:39:38;5.95;;;1.90;;
35689;SDS011;26977;44.830;-0.674;2022-07-29T11:44:54;6.45;;;1.88;;
35689;SDS011;26977;44.830;-0.674;2022-07-29T11:47:31;3.67;;;1.60;;
35689;SDS011;26977;44.830;-0.674;2022-07-29T11:50:03;4.22;;;1.70;;
35689;SDS011;26977;44.830;-0.674;2022-07-29T11:52:34;3.75;;;1.75;;
35689;SDS011;26977;44.830;-0.674;2022-07-29T11:55:09;4.97;;;1.83;;
35689;SDS011;26977;44.830;-0.674;2022-07-29T11:57:37;4.30;;;1.50;;
35689;SDS011;26977;44.830;-0.674;2022-07-29T12:00:11;4.57;;;1.40;;
35689;SDS011;26977;44.830;-0.674;2022-07-29T12:02:40;4.22;;;1.40;;
35689;SDS011;26977;44.830;-0.674;2022-07-29T12:05:07;5.85;;;1.10;;
35689;SDS011;26977;44.830;-0.674;2022-07-29T12:07:35;4.28;;;1.27;;
35689;SDS011;26977;44.830;-0.674;2022-07-29T12:10:02;3.60;;;1.20;;
35689;SDS011;26977;44.830;-0.674;2022-07-29T12:12:29;4.95;;;1.30;;
35689;SDS011;26977;44.830;-0.674;2022-07-29T12:14:55;6.72;;;1.38;;
35689;SDS011;26977;44.830;-0.674;2022-07-29T12:17:31;3.22;;;1.13;;
35689;SDS011;26977;44.830;-0.674;2022-07-29T12:19:59;5.18;;;1.25;;
35689;SDS011;26977;44.830;-0.674;2022-07-29T12:25:06;2.65;;;1.17;;
35689;SDS011;26977;44.830;-0.674;2022-07-29T12:27:34;3.40;;;1.17;;
35689;SDS011;26977;44.830;-0.674;2022-07-29T12:30:06;5.70;;;1.40;;
35689;SDS011;26977;44.830;-0.674;2022-07-29T12:32:55;4.45;;;1.10;;
35689;SDS011;26977;44.830;-0.674;2022-07-29T12:35:20;6.53;;;1.20;;
35689;SDS011;26977;44.830;-0.674;2022-07-29T12:37:47;4.25;;;1.33;;
35689;SDS011;26977;44.830;-0.674;2022-07-29T12:40:16;5.28;;;1.88;;
35689;SDS011;26977;44.830;-0.674;2022-07-29T12:45:32;6.38;;;2.20;;
35689;SDS011;26977;44.830;-0.674;2022-07-29T12:47:58;2.20;;;0.80;;
35689;SDS011;26977;44.830;-0.674;2022-07-29T12:50:23;3.55;;;0.95;;
35689;SDS011;26977;44.830;-0.674;2022-07-29T12:52:50;5.50;;;1.33;;
35689;SDS011;26977;44.830;-0.674;2022-07-29T12:55:31;4.53;;;1.20;;
35689;SDS011;26977;44.830;-0.674;2022-07-29T13:00:35;4.25;;;0.90;;
35689;SDS011;26977;44.830;-0.674;2022-07-29T13:03:01;2.88;;;0.80;;
35689;SDS011;26977;44.830;-0.674;2022-07-29T13:05:43;2.97;;;0.90;;
35689;SDS011;26977;44.830;-0.674;2022-07-29T13:08:10;2.88;;;0.82;;
35689;SDS011;26977;44.830;-0.674;2022-07-29T13:10:37;5.43;;;1.00;;
35689;SDS011;26977;44.830;-0.674;2022-07-29T13:13:10;2.35;;;0.73;;
35689;SDS011;26977;44.830;-0.674;2022-07-29T13:15:39;6.93;;;0.90;;
35689;SDS011;26977;44.830;-0.674;2022-07-29T13:21:15;2.88;;;0.70;;
35689;SDS011;26977;44.830;-0.674;2022-07-29T13:23:41;1.90;;;0.80;;
35689;SDS011;26977;44.830;-0.674;2022-07-29T13:26:08;2.05;;;0.77;;
35689;SDS011;26977;44.830;-0.674;2022-07-29T13:28:34;1.48;;;0.68;;
35689;SDS011;26977;44.830;-0.674;2022-07-29T13:31:00;2.25;;;0.50;;
35689;SDS011;26977;44.830;-0.674;2022-07-29T13:33:26;1.92;;;0.50;;
35689;SDS011;26977;44.830;-0.674;2022-07-29T13:35:52;2.20;;;0.80;;
35689;SDS011;26977;44.830;-0.674;2022-07-29T13:38:18;6.53;;;1.48;;
35689;SDS011;26977;44.830;-0.674;2022-07-29T13:40:43;1.20;;;0.60;;
35689;SDS011;26977;44.830;-0.674;2022-07-29T13:43:09;2.78;;;0.70;;
35689;SDS011;26977;44.830;-0.674;2022-07-29T13:45:36;3.65;;;0.80;;
35689;SDS011;26977;44.830;-0.674;2022-07-29T13:48:02;3.33;;;0.55;;
35689;SDS011;26977;44.830;-0.674;2022-07-29T13:50:28;1.23;;;0.57;;
35689;SDS011;26977;44.830;-0.674;2022-07-29T13:52:54;0.73;;;0.43;;
35689;SDS011;26977;44.830;-0.674;2022-07-29T13:55:20;1.10;;;0.55;;
35689;SDS011;26977;44.830;-0.674;2022-07-29T13:57:46;1.30;;;0.60;;
35689;SDS011;26977;44.830;-0.674;2022-07-29T14:00:12;1.88;;;0.50;;
35689;SDS011;26977;44.830;-0.674;2022-07-29T14:02:40;2.70;;;0.38;;
35689;SDS011;26977;44.830;-0.674;2022-07-29T14:05:05;1.27;;;0.30;;
35689;SDS011;26977;44.830;-0.674;2022-07-29T14:07:31;1.02;;;0.30;;
35689;SDS011;26977;44.830;-0.674;2022-07-29T14:09:57;1.83;;;0.40;;
35689;SDS011;26977;44.830;-0.674;2022-07-29T14:12:23;1.40;;;0.40;;
35689;SDS011;26977;44.830;-0.674;2022-07-29T14:14:48;2.05;;;0.40;;
35689;SDS011;26977;44.830;-0.674;2022-07-29T14:17:15;2.50;;;0.60;;
35689;SDS011;26977;44.830;-0.674;2022-07-29T14:19:40;1.60;;;0.40;;
35689;SDS011;26977;44.830;-0.674;2022-07-29T14:22:07;1.45;;;0.40;;
35689;SDS011;26977;44.830;-0.674;2022-07-29T14:24:34;2.70;;;0.55;;
35689;SDS011;26977;44.830;-0.674;2022-07-29T14:27:00;1.23;;;0.30;;
35689;SDS011;26977;44.830;-0.674;2022-07-29T14:29:26;0.50;;;0.25;;
35689;SDS011;26977;44.830;-0.674;2022-07-29T14:31:52;1.90;;;0.30;;
35689;SDS011;26977;44.830;-0.674;2022-07-29T14:34:17;0.75;;;0.25;;
35689;SDS011;26977;44.830;-0.674;2022-07-29T14:36:43;2.45;;;0.45;;
35689;SDS011;26977;44.830;-0.674;2022-07-29T14:39:09;2.45;;;0.30;;
35689;SDS011;26977;44.830;-0.674;2022-07-29T14:41:35;1.95;;;0.30;;
35689;SDS011;26977;44.830;-0.674;2022-07-29T14:44:00;2.33;;;0.50;;
35689;SDS011;26977;44.830;-0.674;2022-07-29T14:46:26;1.20;;;0.40;;
35689;SDS011;26977;44.830;-0.674;2022-07-29T14:48:52;1.05;;;0.40;;
35689;SDS011;26977;44.830;-0.674;2022-07-29T14:51:18;1.85;;;0.50;;
35689;SDS011;26977;44.830;-0.674;2022-07-29T14:53:44;1.33;;;0.32;;
35689;SDS011;26977;44.830;-0.674;2022-07-29T14:56:10;1.50;;;0.30;;
35689;SDS011;26977;44.830;-0.674;2022-07-29T14:58:36;1.27;;;0.50;;
35689;SDS011;26977;44.830;-0.674;2022-07-29T15:01:02;2.30;;;0.45;;
35689;SDS011;26977;44.830;-0.674;2022-07-29T15:03:27;0.40;;;0.20;;
35689;SDS011;26977;44.830;-0.674;2022-07-29T15:05:53;1.50;;;0.40;;
35689;SDS011;26977;44.830;-0.674;2022-07-29T15:08:20;1.50;;;0.40;;
35689;SDS011;26977;44.830;-0.674;2022-07-29T15:10:45;1.70;;;0.40;;
35689;SDS011;26977;44.830;-0.674;2022-07-29T15:13:11;3.50;;;0.32;;
35689;SDS011;26977;44.830;-0.674;2022-07-29T15:15:37;3.28;;;0.60;;
35689;SDS011;26977;44.830;-0.674;2022-07-29T15:18:03;1.48;;;0.40;;
35689;SDS011;26977;44.830;-0.674;2022-07-29T15:20:30;4.13;;;0.50;;
35689;SDS011;26977;44.830;-0.674;2022-07-29T15:22:56;5.20;;;0.40;;
35689;SDS011;26977;44.830;-0.674;2022-07-29T15:25:22;2.72;;;0.68;;
35689;SDS011;26977;44.830;-0.674;2022-07-29T15:27:49;3.00;;;0.57;;
35689;SDS011;26977;44.830;-0.674;2022-07-29T15:30:14;1.95;;;0.47;;
35689;SDS011;26977;44.830;-0.674;2022-07-29T15:32:42;2.15;;;0.60;;
35689;SDS011;26977;44.830;-0.674;2022-07-29T15:35:08;1.88;;;0.45;;
35689;SDS011;26977;44.830;-0.674;2022-07-29T15:37:35;1.45;;;0.43;;
35689;SDS011;26977;44.830;-0.674;2022-07-29T15:40:02;1.65;;;0.40;;
35689;SDS011;26977;44.830;-0.674;2022-07-29T15:42:28;2.15;;;0.68;;
35689;SDS011;26977;44.830;-0.674;2022-07-29T15:44:54;1.83;;;0.40;;
35689;SDS011;26977;44.830;-0.674;2022-07-29T15:47:20;1.88;;;0.60;;
35689;SDS011;26977;44.830;-0.674;2022-07-29T15:49:46;1.05;;;0.30;;
35689;SDS011;26977;44.830;-0.674;2022-07-29T15:52:12;1.75;;;0.30;;
35689;SDS011;26977;44.830;-0.674;2022-07-29T15:54:38;3.00;;;0.63;;
35689;SDS011;26977;44.830;-0.674;2022-07-29T15:57:07;1.35;;;0.57;;